sensor_id;sensor_type;location;lat;lon;timestamp;P1;durP1;ratioP1;P2;durP2;ratioP2
2157;SDS011;41972;48.774;9.282;2023-02-13T00:01:30;36.10;;;32.50;;
2157;SDS011;41972;48.774;9.282;2023-02-13T00:03:56;56.93;;;51.97;;
2157;SDS011;41972;48.774;9.282;2023-02-13T00:06:21;42.77;;;38.20;;
2157;SDS011;41972;48.774;9.282;2023-02-13T00:08:47;36.43;;;32.80;;
2157;SDS011;41972;48.774;9.282;2023-02-13T00:11:13;40.33;;;36.73;;
2157;SDS011;41972;48.774;9.282;2023-02-13T00:13:38;34.57;;;31.23;;
2157;SDS011;41972;48.774;9.282;2023-02-13T00:16:04;36.23;;;32.60;;
2157;SDS011;41972;48.774;9.282;2023-02-13T00:18:34;38.47;;;34.67;;
2157;SDS011;41972;48.774;9.282;2023-02-13T00:21:08;35.47;;;30.60;;
2157;SDS011;41972;48.774;9.282;2023-02-13T00:23:36;37.43;;;33.50;;
2157;SDS011;41972;48.774;9.282;2023-02-13T00:26:09;33.67;;;30.13;;
2157;SDS011;41972;48.774;9.282;2023-02-13T00:28:36;35.90;;;32.17;;
2157;SDS011;41972;48.774;9.282;2023-02-13T00:31:03;31.33;;;27.80;;
2157;SDS011;41972;48.774;9.282;2023-02-13T00:33:33;36.57;;;32.73;;
2157;SDS011;41972;48.774;9.282;2023-02-13T00:36:05;33.77;;;30.37;;
2157;SDS011;41972;48.774;9.282;2023-02-13T00:38:33;32.33;;;28.83;;
2157;SDS011;41972;48.774;9.282;2023-02-13T00:41:00;33.73;;;30.13;;
2157;SDS011;41972;48.774;9.282;2023-02-13T00:43:26;38.30;;;34.50;;
2157;SDS011;41972;48.774;9.282;2023-02-13T00:45:51;35.10;;;31.70;;
2157;SDS011;41972;48.774;9.282;2023-02-13T00:48:17;36.47;;;32.90;;
2157;SDS011;41972;48.774;9.282;2023-02-13T00:50:42;37.93;;;32.27;;
2157;SDS011;41972;48.774;9.282;2023-02-13T00:53:08;32.87;;;28.57;;
2157;SDS011;41972;48.774;9.282;2023-02-13T00:55:33;32.33;;;28.87;;
2157;SDS011;41972;48.774;9.282;2023-02-13T00:57:59;42.37;;;37.97;;
2157;SDS011;41972;48.774;9.282;2023-02-13T01:00:25;35.20;;;30.90;;
2157;SDS011;41972;48.774;9.282;2023-02-13T01:02:51;40.37;;;36.17;;
2157;SDS011;41972;48.774;9.282;2023-02-13T01:05:17;41.87;;;36.43;;
2157;SDS011;41972;48.774;9.282;2023-02-13T01:07:42;53.90;;;42.90;;
2157;SDS011;41972;48.774;9.282;2023-02-13T01:10:08;53.90;;;47.30;;
2157;SDS011;41972;48.774;9.282;2023-02-13T01:12:34;54.87;;;46.03;;
2157;SDS011;41972;48.774;9.282;2023-02-13T01:14:59;45.07;;;37.17;;
2157;SDS011;41972;48.774;9.282;2023-02-13T01:17:25;38.53;;;31.50;;
2157;SDS011;41972;48.774;9.282;2023-02-13T01:19:50;45.93;;;32.53;;
2157;SDS011;41972;48.774;9.282;2023-02-13T01:22:16;37.30;;;31.57;;
2157;SDS011;41972;48.774;9.282;2023-02-13T01:24:41;34.17;;;30.23;;
2157;SDS011;41972;48.774;9.282;2023-02-13T01:27:07;37.33;;;33.23;;
2157;SDS011;41972;48.774;9.282;2023-02-13T01:29:32;42.07;;;34.70;;
2157;SDS011;41972;48.774;9.282;2023-02-13T01:31:58;40.50;;;33.00;;
2157;SDS011;41972;48.774;9.282;2023-02-13T01:34:24;40.40;;;36.07;;
2157;SDS011;41972;48.774;9.282;2023-02-13T01:36:49;41.30;;;35.97;;
2157;SDS011;41972;48.774;9.282;2023-02-13T01:39:15;43.50;;;36.57;;
2157;SDS011;41972;48.774;9.282;2023-02-13T01:41:40;47.03;;;42.30;;
2157;SDS011;41972;48.774;9.282;2023-02-13T01:47:10;43.83;;;38.60;;
2157;SDS011;41972;48.774;9.282;2023-02-13T01:49:38;47.33;;;38.30;;
2157;SDS011;41972;48.774;9.282;2023-02-13T01:52:04;45.73;;;40.73;;
2157;SDS011;41972;48.774;9.282;2023-02-13T01:54:31;57.37;;;52.37;;
2157;SDS011;41972;48.774;9.282;2023-02-13T01:57:09;48.87;;;43.10;;
2157;SDS011;41972;48.774;9.282;2023-02-13T01:59:47;46.57;;;38.87;;
2157;SDS011;41972;48.774;9.282;2023-02-13T02:02:16;46.07;;;41.20;;
2157;SDS011;41972;48.774;9.282;2023-02-13T02:04:43;54.70;;;49.53;;
2157;SDS011;41972;48.774;9.282;2023-02-13T02:07:12;53.90;;;49.03;;
2157;SDS011;41972;48.774;9.282;2023-02-13T02:09:41;46.40;;;41.40;;
2157;SDS011;41972;48.774;9.282;2023-02-13T02:14:45;55.90;;;50.43;;
2157;SDS011;41972;48.774;9.282;2023-02-13T02:17:11;48.13;;;43.03;;
2157;SDS011;41972;48.774;9.282;2023-02-13T02:19:38;56.60;;;50.40;;
2157;SDS011;41972;48.774;9.282;2023-02-13T02:25:15;50.13;;;44.70;;
2157;SDS011;41972;48.774;9.282;2023-02-13T02:39:00;54.47;;;40.90;;
2157;SDS011;41972;48.774;9.282;2023-02-13T02:44:32;55.97;;;43.23;;
2157;SDS011;41972;48.774;9.282;2023-02-13T02:47:23;49.97;;;44.77;;
2157;SDS011;41972;48.774;9.282;2023-02-13T02:55:34;77.63;;;70.73;;
2157;SDS011;41972;48.774;9.282;2023-02-13T03:01:21;51.77;;;43.87;;
2157;SDS011;41972;48.774;9.282;2023-02-13T03:04:13;52.40;;;42.90;;
2157;SDS011;41972;48.774;9.282;2023-02-13T03:07:03;55.67;;;44.17;;
2157;SDS011;41972;48.774;9.282;2023-02-13T03:09:34;52.93;;;44.27;;
2157;SDS011;41972;48.774;9.282;2023-02-13T03:12:26;59.73;;;44.87;;
2157;SDS011;41972;48.774;9.282;2023-02-13T03:15:16;60.40;;;46.83;;
2157;SDS011;41972;48.774;9.282;2023-02-13T03:17:41;63.00;;;55.23;;
2157;SDS011;41972;48.774;9.282;2023-02-13T03:20:45;57.53;;;47.60;;
2157;SDS011;41972;48.774;9.282;2023-02-13T03:23:53;62.57;;;55.90;;
2157;SDS011;41972;48.774;9.282;2023-02-13T03:26:45;87.20;;;80.10;;
2157;SDS011;41972;48.774;9.282;2023-02-13T03:35:36;60.80;;;49.77;;
2157;SDS011;41972;48.774;9.282;2023-02-13T03:38:32;75.83;;;68.43;;
2157;SDS011;41972;48.774;9.282;2023-02-13T03:41:11;58.90;;;53.13;;
2157;SDS011;41972;48.774;9.282;2023-02-13T03:46:26;64.77;;;57.97;;
2157;SDS011;41972;48.774;9.282;2023-02-13T03:48:57;60.27;;;50.50;;
2157;SDS011;41972;48.774;9.282;2023-02-13T03:51:49;59.50;;;48.93;;
2157;SDS011;41972;48.774;9.282;2023-02-13T03:54:21;59.70;;;49.60;;
2157;SDS011;41972;48.774;9.282;2023-02-13T03:57:18;64.57;;;51.53;;
2157;SDS011;41972;48.774;9.282;2023-02-13T04:00:04;61.50;;;49.87;;
2157;SDS011;41972;48.774;9.282;2023-02-13T04:02:37;65.60;;;52.27;;
2157;SDS011;41972;48.774;9.282;2023-02-13T04:05:12;65.47;;;50.77;;
2157;SDS011;41972;48.774;9.282;2023-02-13T04:07:42;117.03;;;106.93;;
2157;SDS011;41972;48.774;9.282;2023-02-13T04:10:12;72.30;;;59.10;;
2157;SDS011;41972;48.774;9.282;2023-02-13T04:15:35;79.70;;;72.63;;
2157;SDS011;41972;48.774;9.282;2023-02-13T04:18:12;79.70;;;59.57;;
2157;SDS011;41972;48.774;9.282;2023-02-13T04:20:42;78.87;;;69.17;;
2157;SDS011;41972;48.774;9.282;2023-02-13T04:23:08;77.40;;;55.60;;
2157;SDS011;41972;48.774;9.282;2023-02-13T04:25:36;83.67;;;74.17;;
2157;SDS011;41972;48.774;9.282;2023-02-13T04:28:04;69.27;;;54.60;;
2157;SDS011;41972;48.774;9.282;2023-02-13T04:30:30;75.73;;;58.00;;
2157;SDS011;41972;48.774;9.282;2023-02-13T04:32:55;80.07;;;58.37;;
2157;SDS011;41972;48.774;9.282;2023-02-13T04:35:21;70.27;;;56.10;;
2157;SDS011;41972;48.774;9.282;2023-02-13T04:37:47;81.27;;;58.27;;
2157;SDS011;41972;48.774;9.282;2023-02-13T04:40:14;79.80;;;59.97;;
2157;SDS011;41972;48.774;9.282;2023-02-13T04:42:39;79.73;;;70.13;;
2157;SDS011;41972;48.774;9.282;2023-02-13T04:45:05;70.50;;;62.83;;
2157;SDS011;41972;48.774;9.282;2023-02-13T04:47:30;60.47;;;53.17;;
2157;SDS011;41972;48.774;9.282;2023-02-13T04:49:56;70.43;;;63.77;;
2157;SDS011;41972;48.774;9.282;2023-02-13T04:52:22;116.53;;;108.50;;
2157;SDS011;41972;48.774;9.282;2023-02-13T04:54:47;58.87;;;50.23;;
2157;SDS011;41972;48.774;9.282;2023-02-13T04:57:13;102.00;;;92.53;;
2157;SDS011;41972;48.774;9.282;2023-02-13T04:59:39;85.77;;;62.60;;
2157;SDS011;41972;48.774;9.282;2023-02-13T05:02:05;81.07;;;58.00;;
2157;SDS011;41972;48.774;9.282;2023-02-13T05:04:30;62.57;;;52.70;;
2157;SDS011;41972;48.774;9.282;2023-02-13T05:06:56;55.00;;;47.50;;
2157;SDS011;41972;48.774;9.282;2023-02-13T05:09:22;62.40;;;54.27;;
2157;SDS011;41972;48.774;9.282;2023-02-13T05:11:50;54.70;;;47.90;;
2157;SDS011;41972;48.774;9.282;2023-02-13T05:14:16;77.90;;;57.00;;
2157;SDS011;41972;48.774;9.282;2023-02-13T05:16:42;70.80;;;55.00;;
2157;SDS011;41972;48.774;9.282;2023-02-13T05:19:07;67.20;;;53.97;;
2157;SDS011;41972;48.774;9.282;2023-02-13T05:21:33;65.47;;;55.67;;
2157;SDS011;41972;48.774;9.282;2023-02-13T05:24:17;64.50;;;51.87;;
2157;SDS011;41972;48.774;9.282;2023-02-13T05:26:43;72.43;;;58.43;;
2157;SDS011;41972;48.774;9.282;2023-02-13T05:29:09;76.53;;;62.20;;
2157;SDS011;41972;48.774;9.282;2023-02-13T05:31:53;78.40;;;57.37;;
2157;SDS011;41972;48.774;9.282;2023-02-13T05:34:22;82.03;;;63.90;;
2157;SDS011;41972;48.774;9.282;2023-02-13T05:36:49;68.23;;;53.27;;
2157;SDS011;41972;48.774;9.282;2023-02-13T05:39:15;76.37;;;56.80;;
2157;SDS011;41972;48.774;9.282;2023-02-13T05:41:41;78.67;;;68.77;;
2157;SDS011;41972;48.774;9.282;2023-02-13T05:44:08;81.43;;;61.63;;
2157;SDS011;41972;48.774;9.282;2023-02-13T05:46:35;80.10;;;59.60;;
2157;SDS011;41972;48.774;9.282;2023-02-13T05:49:02;81.63;;;65.22;;
2157;SDS011;41972;48.774;9.282;2023-02-13T05:51:28;81.80;;;59.60;;
2157;SDS011;41972;48.774;9.282;2023-02-13T05:53:53;74.50;;;54.63;;
2157;SDS011;41972;48.774;9.282;2023-02-13T05:56:19;67.07;;;59.13;;
2157;SDS011;41972;48.774;9.282;2023-02-13T05:58:45;76.23;;;55.40;;
2157;SDS011;41972;48.774;9.282;2023-02-13T06:01:10;63.07;;;53.70;;
2157;SDS011;41972;48.774;9.282;2023-02-13T06:03:36;59.40;;;51.10;;
2157;SDS011;41972;48.774;9.282;2023-02-13T06:06:04;74.47;;;57.60;;
2157;SDS011;41972;48.774;9.282;2023-02-13T06:08:30;99.90;;;89.20;;
2157;SDS011;41972;48.774;9.282;2023-02-13T06:10:56;86.13;;;63.90;;
2157;SDS011;41972;48.774;9.282;2023-02-13T06:13:21;71.20;;;63.87;;
2157;SDS011;41972;48.774;9.282;2023-02-13T06:15:47;78.13;;;60.93;;
2157;SDS011;41972;48.774;9.282;2023-02-13T06:18:14;82.00;;;58.23;;
2157;SDS011;41972;48.774;9.282;2023-02-13T06:20:40;82.93;;;58.23;;
2157;SDS011;41972;48.774;9.282;2023-02-13T06:23:05;66.00;;;52.30;;
2157;SDS011;41972;48.774;9.282;2023-02-13T06:25:32;66.53;;;59.23;;
2157;SDS011;41972;48.774;9.282;2023-02-13T06:27:59;67.63;;;53.73;;
2157;SDS011;41972;48.774;9.282;2023-02-13T06:30:25;84.53;;;56.73;;
2157;SDS011;41972;48.774;9.282;2023-02-13T06:32:51;69.93;;;56.13;;
2157;SDS011;41972;48.774;9.282;2023-02-13T06:35:17;67.47;;;60.70;;
2157;SDS011;41972;48.774;9.282;2023-02-13T06:37:42;58.30;;;47.77;;
2157;SDS011;41972;48.774;9.282;2023-02-13T06:40:08;58.37;;;46.67;;
2157;SDS011;41972;48.774;9.282;2023-02-13T06:42:35;53.20;;;45.40;;
2157;SDS011;41972;48.774;9.282;2023-02-13T06:45:00;57.73;;;45.53;;
2157;SDS011;41972;48.774;9.282;2023-02-13T06:47:26;62.47;;;49.27;;
2157;SDS011;41972;48.774;9.282;2023-02-13T06:49:51;66.20;;;50.87;;
2157;SDS011;41972;48.774;9.282;2023-02-13T06:52:18;71.40;;;52.83;;
2157;SDS011;41972;48.774;9.282;2023-02-13T06:54:44;60.30;;;49.43;;
2157;SDS011;41972;48.774;9.282;2023-02-13T06:57:09;51.20;;;43.67;;
2157;SDS011;41972;48.774;9.282;2023-02-13T06:59:35;65.53;;;57.73;;
2157;SDS011;41972;48.774;9.282;2023-02-13T07:02:00;59.37;;;53.40;;
2157;SDS011;41972;48.774;9.282;2023-02-13T07:04:26;58.67;;;48.07;;
2157;SDS011;41972;48.774;9.282;2023-02-13T07:06:55;57.60;;;51.90;;
2157;SDS011;41972;48.774;9.282;2023-02-13T07:09:21;57.87;;;51.87;;
2157;SDS011;41972;48.774;9.282;2023-02-13T07:11:47;51.20;;;44.97;;
2157;SDS011;41972;48.774;9.282;2023-02-13T07:14:13;56.60;;;45.00;;
2157;SDS011;41972;48.774;9.282;2023-02-13T07:16:38;55.20;;;46.03;;
2157;SDS011;41972;48.774;9.282;2023-02-13T07:19:04;54.43;;;44.47;;
2157;SDS011;41972;48.774;9.282;2023-02-13T07:21:29;52.53;;;45.77;;
2157;SDS011;41972;48.774;9.282;2023-02-13T07:23:55;49.53;;;41.23;;
2157;SDS011;41972;48.774;9.282;2023-02-13T07:26:21;42.97;;;38.27;;
2157;SDS011;41972;48.774;9.282;2023-02-13T07:28:46;42.37;;;37.83;;
2157;SDS011;41972;48.774;9.282;2023-02-13T07:31:12;41.33;;;37.00;;
2157;SDS011;41972;48.774;9.282;2023-02-13T07:33:37;45.97;;;41.00;;
2157;SDS011;41972;48.774;9.282;2023-02-13T07:36:03;55.10;;;49.70;;
2157;SDS011;41972;48.774;9.282;2023-02-13T07:38:30;47.20;;;42.20;;
2157;SDS011;41972;48.774;9.282;2023-02-13T07:40:57;48.73;;;43.67;;
2157;SDS011;41972;48.774;9.282;2023-02-13T07:43:23;46.70;;;41.80;;
2157;SDS011;41972;48.774;9.282;2023-02-13T07:45:49;44.70;;;40.00;;
2157;SDS011;41972;48.774;9.282;2023-02-13T07:48:19;52.57;;;47.50;;
2157;SDS011;41972;48.774;9.282;2023-02-13T07:50:48;49.60;;;44.93;;
2157;SDS011;41972;48.774;9.282;2023-02-13T07:53:13;45.33;;;40.73;;
2157;SDS011;41972;48.774;9.282;2023-02-13T07:55:39;38.50;;;34.30;;
2157;SDS011;41972;48.774;9.282;2023-02-13T07:58:05;70.77;;;65.47;;
2157;SDS011;41972;48.774;9.282;2023-02-13T08:00:30;42.47;;;38.40;;
2157;SDS011;41972;48.774;9.282;2023-02-13T08:02:59;39.20;;;35.50;;
2157;SDS011;41972;48.774;9.282;2023-02-13T08:05:25;34.93;;;31.73;;
2157;SDS011;41972;48.774;9.282;2023-02-13T08:07:51;31.33;;;28.43;;
2157;SDS011;41972;48.774;9.282;2023-02-13T08:10:17;29.50;;;26.90;;
2157;SDS011;41972;48.774;9.282;2023-02-13T08:13:02;27.90;;;25.70;;
2157;SDS011;41972;48.774;9.282;2023-02-13T08:15:28;23.73;;;21.73;;
2157;SDS011;41972;48.774;9.282;2023-02-13T08:17:54;24.90;;;22.80;;
2157;SDS011;41972;48.774;9.282;2023-02-13T08:20:21;24.30;;;22.30;;
2157;SDS011;41972;48.774;9.282;2023-02-13T08:22:47;67.77;;;63.93;;
2157;SDS011;41972;48.774;9.282;2023-02-13T08:25:13;25.90;;;23.50;;
2157;SDS011;41972;48.774;9.282;2023-02-13T08:27:39;26.90;;;24.60;;
2157;SDS011;41972;48.774;9.282;2023-02-13T08:30:04;38.00;;;35.43;;
2157;SDS011;41972;48.774;9.282;2023-02-13T08:32:31;25.87;;;23.67;;
2157;SDS011;41972;48.774;9.282;2023-02-13T08:34:56;27.83;;;25.70;;
2157;SDS011;41972;48.774;9.282;2023-02-13T08:37:22;22.00;;;20.13;;
2157;SDS011;41972;48.774;9.282;2023-02-13T08:39:48;25.00;;;22.93;;
2157;SDS011;41972;48.774;9.282;2023-02-13T08:42:13;22.23;;;20.27;;
2157;SDS011;41972;48.774;9.282;2023-02-13T08:44:39;21.87;;;20.07;;
2157;SDS011;41972;48.774;9.282;2023-02-13T08:47:06;22.57;;;20.77;;
2157;SDS011;41972;48.774;9.282;2023-02-13T08:49:32;110.50;;;105.80;;
2157;SDS011;41972;48.774;9.282;2023-02-13T08:51:58;21.60;;;19.90;;
2157;SDS011;41972;48.774;9.282;2023-02-13T08:54:24;22.23;;;20.43;;
2157;SDS011;41972;48.774;9.282;2023-02-13T08:56:51;66.13;;;62.50;;
2157;SDS011;41972;48.774;9.282;2023-02-13T08:59:17;23.93;;;22.03;;
2157;SDS011;41972;48.774;9.282;2023-02-13T09:01:43;20.20;;;18.60;;
2157;SDS011;41972;48.774;9.282;2023-02-13T09:04:08;31.97;;;29.80;;
2157;SDS011;41972;48.774;9.282;2023-02-13T09:06:34;23.43;;;21.63;;
2157;SDS011;41972;48.774;9.282;2023-02-13T09:08:59;30.20;;;28.20;;
2157;SDS011;41972;48.774;9.282;2023-02-13T09:11:25;22.20;;;20.23;;
2157;SDS011;41972;48.774;9.282;2023-02-13T09:13:54;19.17;;;17.63;;
2157;SDS011;41972;48.774;9.282;2023-02-13T09:16:20;24.50;;;22.70;;
2157;SDS011;41972;48.774;9.282;2023-02-13T09:18:46;20.40;;;18.67;;
2157;SDS011;41972;48.774;9.282;2023-02-13T09:21:12;23.43;;;21.53;;
2157;SDS011;41972;48.774;9.282;2023-02-13T09:23:39;21.93;;;20.17;;
2157;SDS011;41972;48.774;9.282;2023-02-13T09:26:06;18.90;;;17.40;;
2157;SDS011;41972;48.774;9.282;2023-02-13T09:28:34;21.23;;;19.63;;
2157;SDS011;41972;48.774;9.282;2023-02-13T09:31:07;20.50;;;18.90;;
2157;SDS011;41972;48.774;9.282;2023-02-13T09:33:34;22.00;;;20.03;;
2157;SDS011;41972;48.774;9.282;2023-02-13T09:36:07;19.07;;;17.57;;
2157;SDS011;41972;48.774;9.282;2023-02-13T09:38:34;22.63;;;20.97;;
2157;SDS011;41972;48.774;9.282;2023-02-13T09:41:01;19.20;;;17.63;;
2157;SDS011;41972;48.774;9.282;2023-02-13T09:43:34;21.97;;;20.07;;
2157;SDS011;41972;48.774;9.282;2023-02-13T09:46:17;23.23;;;21.57;;
2157;SDS011;41972;48.774;9.282;2023-02-13T09:48:49;21.17;;;19.37;;
2157;SDS011;41972;48.774;9.282;2023-02-13T09:51:18;27.90;;;26.20;;
2157;SDS011;41972;48.774;9.282;2023-02-13T09:53:50;28.77;;;26.93;;
2157;SDS011;41972;48.774;9.282;2023-02-13T09:56:36;33.03;;;30.93;;
2157;SDS011;41972;48.774;9.282;2023-02-13T09:59:27;22.97;;;21.27;;
2157;SDS011;41972;48.774;9.282;2023-02-13T10:02:22;19.60;;;18.20;;
2157;SDS011;41972;48.774;9.282;2023-02-13T10:10:49;23.40;;;21.80;;
2157;SDS011;41972;48.774;9.282;2023-02-13T10:13:21;18.90;;;17.50;;
2157;SDS011;41972;48.774;9.282;2023-02-13T10:16:13;17.13;;;15.83;;
2157;SDS011;41972;48.774;9.282;2023-02-13T10:18:56;20.50;;;19.03;;
2157;SDS011;41972;48.774;9.282;2023-02-13T10:21:30;23.53;;;21.63;;
2157;SDS011;41972;48.774;9.282;2023-02-13T10:24:06;22.33;;;20.80;;
2157;SDS011;41972;48.774;9.282;2023-02-13T10:26:49;17.87;;;16.43;;
2157;SDS011;41972;48.774;9.282;2023-02-13T10:29:18;26.23;;;24.53;;
2157;SDS011;41972;48.774;9.282;2023-02-13T10:32:16;22.73;;;21.03;;
2157;SDS011;41972;48.774;9.282;2023-02-13T10:34:46;18.73;;;17.20;;
2157;SDS011;41972;48.774;9.282;2023-02-13T10:37:14;18.70;;;17.30;;
2157;SDS011;41972;48.774;9.282;2023-02-13T10:39:42;25.20;;;23.57;;
2157;SDS011;41972;48.774;9.282;2023-02-13T10:42:55;16.90;;;15.53;;
2157;SDS011;41972;48.774;9.282;2023-02-13T10:50:54;17.97;;;16.57;;
2157;SDS011;41972;48.774;9.282;2023-02-13T11:01:42;17.73;;;16.23;;
2157;SDS011;41972;48.774;9.282;2023-02-13T11:04:11;21.73;;;20.23;;
2157;SDS011;41972;48.774;9.282;2023-02-13T11:06:53;20.67;;;19.20;;
2157;SDS011;41972;48.774;9.282;2023-02-13T11:09:21;20.60;;;19.00;;
2157;SDS011;41972;48.774;9.282;2023-02-13T11:11:47;20.80;;;19.40;;
2157;SDS011;41972;48.774;9.282;2023-02-13T11:14:20;37.30;;;35.03;;
2157;SDS011;41972;48.774;9.282;2023-02-13T11:19:36;17.67;;;16.20;;
2157;SDS011;41972;48.774;9.282;2023-02-13T11:22:11;16.53;;;15.23;;
2157;SDS011;41972;48.774;9.282;2023-02-13T11:24:41;20.40;;;19.03;;
2157;SDS011;41972;48.774;9.282;2023-02-13T11:27:14;17.27;;;15.87;;
2157;SDS011;41972;48.774;9.282;2023-02-13T11:29:53;27.17;;;25.40;;
2157;SDS011;41972;48.774;9.282;2023-02-13T11:32:31;15.77;;;14.57;;
2157;SDS011;41972;48.774;9.282;2023-02-13T11:35:15;19.77;;;18.47;;
2157;SDS011;41972;48.774;9.282;2023-02-13T11:40:42;17.03;;;15.63;;
2157;SDS011;41972;48.774;9.282;2023-02-13T11:46:00;20.63;;;19.03;;
2157;SDS011;41972;48.774;9.282;2023-02-13T11:48:30;16.80;;;15.40;;
2157;SDS011;41972;48.774;9.282;2023-02-13T11:50:56;18.27;;;16.77;;
2157;SDS011;41972;48.774;9.282;2023-02-13T11:53:26;20.60;;;19.00;;
2157;SDS011;41972;48.774;9.282;2023-02-13T11:56:04;19.20;;;17.60;;
2157;SDS011;41972;48.774;9.282;2023-02-13T11:58:34;17.83;;;16.43;;
2157;SDS011;41972;48.774;9.282;2023-02-13T12:01:08;18.33;;;17.03;;
2157;SDS011;41972;48.774;9.282;2023-02-13T12:04:00;21.63;;;19.93;;
2157;SDS011;41972;48.774;9.282;2023-02-13T12:06:29;20.07;;;18.43;;
2157;SDS011;41972;48.774;9.282;2023-02-13T12:09:03;20.80;;;19.10;;
2157;SDS011;41972;48.774;9.282;2023-02-13T12:14:08;19.63;;;18.00;;
2157;SDS011;41972;48.774;9.282;2023-02-13T12:16:41;32.40;;;30.27;;
2157;SDS011;41972;48.774;9.282;2023-02-13T12:19:16;22.00;;;20.30;;
2157;SDS011;41972;48.774;9.282;2023-02-13T12:22:08;25.17;;;23.27;;
2157;SDS011;41972;48.774;9.282;2023-02-13T12:41:27;23.63;;;21.73;;
2157;SDS011;41972;48.774;9.282;2023-02-13T12:47:17;17.70;;;16.20;;
2157;SDS011;41972;48.774;9.282;2023-02-13T12:49:52;17.23;;;15.63;;
2157;SDS011;41972;48.774;9.282;2023-02-13T12:52:35;26.53;;;24.73;;
2157;SDS011;41972;48.774;9.282;2023-02-13T12:55:26;19.97;;;18.50;;
2157;SDS011;41972;48.774;9.282;2023-02-13T13:06:08;20.60;;;18.90;;
2157;SDS011;41972;48.774;9.282;2023-02-13T13:17:14;19.80;;;18.17;;
2157;SDS011;41972;48.774;9.282;2023-02-13T13:22:56;18.20;;;16.80;;
2157;SDS011;41972;48.774;9.282;2023-02-13T13:25:30;21.33;;;19.83;;
2157;SDS011;41972;48.774;9.282;2023-02-13T13:28:07;27.37;;;25.57;;
2157;SDS011;41972;48.774;9.282;2023-02-13T13:30:39;20.20;;;18.70;;
2157;SDS011;41972;48.774;9.282;2023-02-13T13:35:41;23.03;;;21.63;;
2157;SDS011;41972;48.774;9.282;2023-02-13T13:38:11;18.00;;;16.30;;
2157;SDS011;41972;48.774;9.282;2023-02-13T13:40:48;18.00;;;16.70;;
2157;SDS011;41972;48.774;9.282;2023-02-13T13:43:39;20.93;;;19.43;;
2157;SDS011;41972;48.774;9.282;2023-02-13T13:46:30;15.57;;;14.27;;
2157;SDS011;41972;48.774;9.282;2023-02-13T13:52:23;18.17;;;16.87;;
2157;SDS011;41972;48.774;9.282;2023-02-13T13:54:49;22.40;;;20.80;;
2157;SDS011;41972;48.774;9.282;2023-02-13T13:57:57;19.00;;;17.40;;
2157;SDS011;41972;48.774;9.282;2023-02-13T14:00:22;15.00;;;13.73;;
2157;SDS011;41972;48.774;9.282;2023-02-13T14:05:27;15.67;;;14.40;;
2157;SDS011;41972;48.774;9.282;2023-02-13T14:07:56;23.73;;;22.10;;
2157;SDS011;41972;48.774;9.282;2023-02-13T14:26:08;17.20;;;15.87;;
2157;SDS011;41972;48.774;9.282;2023-02-13T14:28:35;19.10;;;17.60;;
2157;SDS011;41972;48.774;9.282;2023-02-13T14:31:04;21.27;;;19.93;;
2157;SDS011;41972;48.774;9.282;2023-02-13T14:33:33;17.90;;;16.70;;
2157;SDS011;41972;48.774;9.282;2023-02-13T14:36:03;16.40;;;14.83;;
2157;SDS011;41972;48.774;9.282;2023-02-13T14:38:32;17.40;;;16.10;;
2157;SDS011;41972;48.774;9.282;2023-02-13T14:40:59;20.00;;;18.60;;
2157;SDS011;41972;48.774;9.282;2023-02-13T14:45:53;17.57;;;16.27;;
2157;SDS011;41972;48.774;9.282;2023-02-13T14:48:21;16.30;;;15.17;;
2157;SDS011;41972;48.774;9.282;2023-02-13T14:50:57;16.33;;;14.73;;
2157;SDS011;41972;48.774;9.282;2023-02-13T14:53:30;15.40;;;14.30;;
2157;SDS011;41972;48.774;9.282;2023-02-13T14:56:13;36.77;;;34.77;;
2157;SDS011;41972;48.774;9.282;2023-02-13T14:58:47;20.93;;;19.23;;
2157;SDS011;41972;48.774;9.282;2023-02-13T15:01:30;16.50;;;15.27;;
2157;SDS011;41972;48.774;9.282;2023-02-13T15:04:08;28.40;;;26.70;;
2157;SDS011;41972;48.774;9.282;2023-02-13T15:06:40;43.47;;;41.23;;
2157;SDS011;41972;48.774;9.282;2023-02-13T15:09:25;19.77;;;18.10;;
2157;SDS011;41972;48.774;9.282;2023-02-13T15:11:57;25.23;;;23.73;;
2157;SDS011;41972;48.774;9.282;2023-02-13T15:19:49;18.50;;;17.10;;
2157;SDS011;41972;48.774;9.282;2023-02-13T15:22:21;19.77;;;18.23;;
2157;SDS011;41972;48.774;9.282;2023-02-13T15:25:03;19.07;;;17.67;;
2157;SDS011;41972;48.774;9.282;2023-02-13T15:27:33;23.90;;;22.30;;
2157;SDS011;41972;48.774;9.282;2023-02-13T15:32:41;18.50;;;17.07;;
2157;SDS011;41972;48.774;9.282;2023-02-13T15:35:27;19.60;;;18.00;;
2157;SDS011;41972;48.774;9.282;2023-02-13T15:37:54;20.40;;;18.90;;
2157;SDS011;41972;48.774;9.282;2023-02-13T15:40:22;26.37;;;24.63;;
2157;SDS011;41972;48.774;9.282;2023-02-13T15:42:56;20.47;;;18.77;;
2157;SDS011;41972;48.774;9.282;2023-02-13T15:45:23;22.87;;;21.17;;
2157;SDS011;41972;48.774;9.282;2023-02-13T15:47:51;28.50;;;26.73;;
2157;SDS011;41972;48.774;9.282;2023-02-13T15:50:25;18.73;;;17.23;;
2157;SDS011;41972;48.774;9.282;2023-02-13T15:52:58;20.27;;;18.77;;
2157;SDS011;41972;48.774;9.282;2023-02-13T15:55:28;20.97;;;19.47;;
2157;SDS011;41972;48.774;9.282;2023-02-13T15:57:57;22.13;;;20.30;;
2157;SDS011;41972;48.774;9.282;2023-02-13T16:00:25;19.60;;;18.20;;
2157;SDS011;41972;48.774;9.282;2023-02-13T16:02:59;17.50;;;15.70;;
2157;SDS011;41972;48.774;9.282;2023-02-13T16:05:29;20.83;;;19.13;;
2157;SDS011;41972;48.774;9.282;2023-02-13T16:07:58;18.87;;;17.37;;
2157;SDS011;41972;48.774;9.282;2023-02-13T16:10:33;21.90;;;20.10;;
2157;SDS011;41972;48.774;9.282;2023-02-13T16:13:02;48.77;;;46.43;;
2157;SDS011;41972;48.774;9.282;2023-02-13T16:15:31;19.43;;;17.73;;
2157;SDS011;41972;48.774;9.282;2023-02-13T16:17:59;22.63;;;20.83;;
2157;SDS011;41972;48.774;9.282;2023-02-13T16:20:26;25.33;;;23.43;;
2157;SDS011;41972;48.774;9.282;2023-02-13T16:28:03;23.50;;;21.50;;
2157;SDS011;41972;48.774;9.282;2023-02-13T16:30:41;20.53;;;18.83;;
2157;SDS011;41972;48.774;9.282;2023-02-13T16:35:51;18.93;;;17.20;;
2157;SDS011;41972;48.774;9.282;2023-02-13T16:38:24;24.47;;;22.47;;
2157;SDS011;41972;48.774;9.282;2023-02-13T16:40:52;79.07;;;75.43;;
2157;SDS011;41972;48.774;9.282;2023-02-13T16:54:30;22.83;;;20.80;;
2157;SDS011;41972;48.774;9.282;2023-02-13T17:04:45;22.80;;;20.77;;
2157;SDS011;41972;48.774;9.282;2023-02-13T17:07:22;22.13;;;20.13;;
2157;SDS011;41972;48.774;9.282;2023-02-13T17:09:54;22.37;;;20.37;;
2157;SDS011;41972;48.774;9.282;2023-02-13T17:12:21;22.37;;;20.43;;
2157;SDS011;41972;48.774;9.282;2023-02-13T17:14:48;24.83;;;22.77;;
2157;SDS011;41972;48.774;9.282;2023-02-13T17:17:15;25.60;;;22.77;;
2157;SDS011;41972;48.774;9.282;2023-02-13T17:19:43;29.90;;;27.50;;
2157;SDS011;41972;48.774;9.282;2023-02-13T17:22:20;24.37;;;22.17;;
2157;SDS011;41972;48.774;9.282;2023-02-13T17:24:50;24.10;;;21.90;;
2157;SDS011;41972;48.774;9.282;2023-02-13T17:27:16;26.47;;;24.37;;
2157;SDS011;41972;48.774;9.282;2023-02-13T17:29:41;30.03;;;27.73;;
2157;SDS011;41972;48.774;9.282;2023-02-13T17:32:07;25.80;;;23.60;;
2157;SDS011;41972;48.774;9.282;2023-02-13T17:34:39;30.50;;;28.10;;
2157;SDS011;41972;48.774;9.282;2023-02-13T17:37:09;26.23;;;24.13;;
2157;SDS011;41972;48.774;9.282;2023-02-13T17:39:47;28.07;;;25.67;;
2157;SDS011;41972;48.774;9.282;2023-02-13T17:42:14;25.50;;;23.30;;
2157;SDS011;41972;48.774;9.282;2023-02-13T17:44:42;27.03;;;24.60;;
2157;SDS011;41972;48.774;9.282;2023-02-13T17:47:08;33.50;;;31.00;;
2157;SDS011;41972;48.774;9.282;2023-02-13T17:49:33;23.33;;;21.03;;